sensor_id;sensor_type;location;lat;lon;timestamp;P1;durP1;ratioP1;P2;durP2;ratioP2
46757;SDS011;32509;47.750;-3.396;2023-02-26T00:01:54;7.65;;;2.65;;
46757;SDS011;32509;47.750;-3.396;2023-02-26T00:04:25;10.25;;;2.90;;
46757;SDS011;32509;47.750;-3.396;2023-02-26T00:06:50;12.32;;;2.80;;
46757;SDS011;32509;47.750;-3.396;2023-02-26T00:09:17;9.00;;;2.95;;
46757;SDS011;32509;47.750;-3.396;2023-02-26T00:11:44;11.18;;;3.67;;
46757;SDS011;32509;47.750;-3.396;2023-02-26T00:14:11;13.75;;;3.13;;
46757;SDS011;32509;47.750;-3.396;2023-02-26T00:16:38;8.55;;;2.55;;
46757;SDS011;32509;47.750;-3.396;2023-02-26T00:19:05;7.13;;;3.30;;
46757;SDS011;32509;47.750;-3.396;2023-02-26T00:21:33;10.20;;;4.03;;
46757;SDS011;32509;47.750;-3.396;2023-02-26T00:24:00;11.98;;;3.65;;
46757;SDS011;32509;47.750;-3.396;2023-02-26T00:26:26;10.25;;;3.47;;
46757;SDS011;32509;47.750;-3.396;2023-02-26T00:28:54;10.57;;;3.20;;
46757;SDS011;32509;47.750;-3.396;2023-02-26T00:31:20;10.45;;;3.35;;
46757;SDS011;32509;47.750;-3.396;2023-02-26T00:33:50;16.60;;;2.95;;
46757;SDS011;32509;47.750;-3.396;2023-02-26T00:36:24;11.45;;;3.10;;
46757;SDS011;32509;47.750;-3.396;2023-02-26T00:39:14;9.02;;;2.70;;
46757;SDS011;32509;47.750;-3.396;2023-02-26T00:42:00;10.70;;;2.50;;
46757;SDS011;32509;47.750;-3.396;2023-02-26T00:44:27;8.95;;;2.92;;
46757;SDS011;32509;47.750;-3.396;2023-02-26T00:46:54;6.82;;;2.88;;
46757;SDS011;32509;47.750;-3.396;2023-02-26T00:52:38;8.98;;;2.97;;
46757;SDS011;32509;47.750;-3.396;2023-02-26T00:55:09;9.40;;;2.75;;
46757;SDS011;32509;47.750;-3.396;2023-02-26T00:57:34;10.48;;;2.78;;
46757;SDS011;32509;47.750;-3.396;2023-02-26T01:00:00;11.85;;;2.90;;
46757;SDS011;32509;47.750;-3.396;2023-02-26T01:02:29;12.80;;;2.63;;
46757;SDS011;32509;47.750;-3.396;2023-02-26T01:04:55;6.95;;;2.53;;
46757;SDS011;32509;47.750;-3.396;2023-02-26T01:07:21;9.20;;;2.70;;
46757;SDS011;32509;47.750;-3.396;2023-02-26T01:09:48;13.70;;;3.03;;
46757;SDS011;32509;47.750;-3.396;2023-02-26T01:12:15;8.13;;;2.83;;
46757;SDS011;32509;47.750;-3.396;2023-02-26T01:14:41;8.25;;;2.30;;
46757;SDS011;32509;47.750;-3.396;2023-02-26T01:19:53;14.45;;;2.83;;
46757;SDS011;32509;47.750;-3.396;2023-02-26T01:25:17;8.52;;;2.60;;
46757;SDS011;32509;47.750;-3.396;2023-02-26T01:27:51;11.07;;;3.28;;
46757;SDS011;32509;47.750;-3.396;2023-02-26T01:30:17;16.50;;;4.50;;
46757;SDS011;32509;47.750;-3.396;2023-02-26T01:35:44;6.95;;;2.47;;
46757;SDS011;32509;47.750;-3.396;2023-02-26T01:38:19;9.32;;;2.25;;
46757;SDS011;32509;47.750;-3.396;2023-02-26T01:48:48;11.68;;;2.88;;
46757;SDS011;32509;47.750;-3.396;2023-02-26T01:51:16;12.02;;;3.05;;
46757;SDS011;32509;47.750;-3.396;2023-02-26T01:53:43;9.98;;;2.67;;
46757;SDS011;32509;47.750;-3.396;2023-02-26T01:56:12;9.27;;;3.05;;
46757;SDS011;32509;47.750;-3.396;2023-02-26T01:58:41;7.15;;;2.28;;
46757;SDS011;32509;47.750;-3.396;2023-02-26T02:01:08;6.75;;;2.42;;
46757;SDS011;32509;47.750;-3.396;2023-02-26T02:03:36;7.88;;;3.03;;
46757;SDS011;32509;47.750;-3.396;2023-02-26T02:06:05;10.10;;;2.83;;
46757;SDS011;32509;47.750;-3.396;2023-02-26T02:08:38;8.90;;;2.78;;
46757;SDS011;32509;47.750;-3.396;2023-02-26T02:11:05;11.90;;;2.80;;
46757;SDS011;32509;47.750;-3.396;2023-02-26T02:13:40;7.25;;;2.67;;
46757;SDS011;32509;47.750;-3.396;2023-02-26T02:27:32;7.22;;;2.33;;
46757;SDS011;32509;47.750;-3.396;2023-02-26T02:30:14;13.50;;;2.83;;
46757;SDS011;32509;47.750;-3.396;2023-02-26T02:32:58;11.02;;;3.92;;
46757;SDS011;32509;47.750;-3.396;2023-02-26T02:35:38;5.15;;;2.08;;
46757;SDS011;32509;47.750;-3.396;2023-02-26T02:38:10;10.55;;;2.65;;
46757;SDS011;32509;47.750;-3.396;2023-02-26T02:40:43;7.88;;;2.60;;
46757;SDS011;32509;47.750;-3.396;2023-02-26T02:43:14;9.15;;;2.50;;
46757;SDS011;32509;47.750;-3.396;2023-02-26T02:45:58;9.20;;;3.13;;
46757;SDS011;32509;47.750;-3.396;2023-02-26T02:48:40;6.95;;;1.95;;
46757;SDS011;32509;47.750;-3.396;2023-02-26T03:02:06;12.25;;;2.60;;
46757;SDS011;32509;47.750;-3.396;2023-02-26T03:04:32;9.80;;;3.40;;
46757;SDS011;32509;47.750;-3.396;2023-02-26T03:06:59;9.27;;;2.60;;
46757;SDS011;32509;47.750;-3.396;2023-02-26T03:09:25;7.80;;;2.38;;
46757;SDS011;32509;47.750;-3.396;2023-02-26T03:11:50;4.97;;;1.92;;
46757;SDS011;32509;47.750;-3.396;2023-02-26T03:14:16;8.90;;;3.42;;
46757;SDS011;32509;47.750;-3.396;2023-02-26T03:22:14;7.68;;;2.70;;
46757;SDS011;32509;47.750;-3.396;2023-02-26T03:27:30;3.92;;;2.20;;
46757;SDS011;32509;47.750;-3.396;2023-02-26T03:33:02;6.00;;;2.03;;
46757;SDS011;32509;47.750;-3.396;2023-02-26T03:38:00;6.82;;;2.45;;
46757;SDS011;32509;47.750;-3.396;2023-02-26T03:40:38;6.25;;;2.25;;
46757;SDS011;32509;47.750;-3.396;2023-02-26T03:43:17;9.88;;;2.58;;
46757;SDS011;32509;47.750;-3.396;2023-02-26T03:45:49;12.10;;;3.25;;
46757;SDS011;32509;47.750;-3.396;2023-02-26T03:48:19;8.68;;;2.60;;
46757;SDS011;32509;47.750;-3.396;2023-02-26T03:50:50;6.32;;;2.15;;
46757;SDS011;32509;47.750;-3.396;2023-02-26T03:53:21;7.75;;;2.78;;
46757;SDS011;32509;47.750;-3.396;2023-02-26T03:56:08;8.20;;;2.33;;
46757;SDS011;32509;47.750;-3.396;2023-02-26T03:58:55;8.02;;;3.33;;
46757;SDS011;32509;47.750;-3.396;2023-02-26T04:01:22;6.45;;;2.33;;
46757;SDS011;32509;47.750;-3.396;2023-02-26T04:03:55;7.88;;;2.65;;
46757;SDS011;32509;47.750;-3.396;2023-02-26T04:06:28;8.27;;;2.22;;
46757;SDS011;32509;47.750;-3.396;2023-02-26T04:08:55;10.27;;;3.05;;
46757;SDS011;32509;47.750;-3.396;2023-02-26T04:11:21;5.68;;;1.98;;
46757;SDS011;32509;47.750;-3.396;2023-02-26T04:13:49;6.75;;;2.40;;
46757;SDS011;32509;47.750;-3.396;2023-02-26T04:16:16;8.32;;;2.30;;
46757;SDS011;32509;47.750;-3.396;2023-02-26T04:18:42;5.28;;;2.30;;
46757;SDS011;32509;47.750;-3.396;2023-02-26T04:21:15;6.13;;;2.35;;
46757;SDS011;32509;47.750;-3.396;2023-02-26T04:23:43;5.75;;;2.08;;
46757;SDS011;32509;47.750;-3.396;2023-02-26T04:26:09;9.20;;;2.58;;
46757;SDS011;32509;47.750;-3.396;2023-02-26T04:28:35;10.10;;;2.88;;
46757;SDS011;32509;47.750;-3.396;2023-02-26T04:31:02;6.07;;;2.05;;
46757;SDS011;32509;47.750;-3.396;2023-02-26T04:33:29;8.85;;;2.72;;
46757;SDS011;32509;47.750;-3.396;2023-02-26T04:35:56;9.43;;;2.05;;
46757;SDS011;32509;47.750;-3.396;2023-02-26T04:38:22;8.20;;;2.33;;
46757;SDS011;32509;47.750;-3.396;2023-02-26T04:40:48;6.53;;;2.20;;
46757;SDS011;32509;47.750;-3.396;2023-02-26T04:43:15;9.90;;;2.88;;
46757;SDS011;32509;47.750;-3.396;2023-02-26T04:45:43;5.78;;;3.17;;
46757;SDS011;32509;47.750;-3.396;2023-02-26T04:48:13;10.55;;;3.50;;
46757;SDS011;32509;47.750;-3.396;2023-02-26T04:50:39;10.65;;;2.10;;
46757;SDS011;32509;47.750;-3.396;2023-02-26T04:53:06;8.57;;;2.33;;
46757;SDS011;32509;47.750;-3.396;2023-02-26T04:55:32;7.95;;;2.38;;
46757;SDS011;32509;47.750;-3.396;2023-02-26T04:57:59;9.90;;;3.10;;
46757;SDS011;32509;47.750;-3.396;2023-02-26T05:00:25;6.15;;;2.75;;
46757;SDS011;32509;47.750;-3.396;2023-02-26T05:02:50;7.18;;;2.70;;
46757;SDS011;32509;47.750;-3.396;2023-02-26T05:05:16;5.80;;;2.72;;
46757;SDS011;32509;47.750;-3.396;2023-02-26T05:07:42;6.35;;;2.50;;
46757;SDS011;32509;47.750;-3.396;2023-02-26T05:10:08;4.72;;;2.80;;
46757;SDS011;32509;47.750;-3.396;2023-02-26T05:12:34;11.55;;;2.28;;
46757;SDS011;32509;47.750;-3.396;2023-02-26T05:15:03;4.57;;;1.83;;
46757;SDS011;32509;47.750;-3.396;2023-02-26T05:17:29;7.15;;;2.30;;
46757;SDS011;32509;47.750;-3.396;2023-02-26T05:19:55;11.30;;;2.50;;
46757;SDS011;32509;47.750;-3.396;2023-02-26T05:22:21;7.32;;;2.33;;
46757;SDS011;32509;47.750;-3.396;2023-02-26T05:24:47;6.88;;;2.30;;
46757;SDS011;32509;47.750;-3.396;2023-02-26T05:27:13;8.93;;;2.60;;
46757;SDS011;32509;47.750;-3.396;2023-02-26T05:29:39;5.05;;;2.50;;
46757;SDS011;32509;47.750;-3.396;2023-02-26T05:32:08;9.35;;;2.65;;
46757;SDS011;32509;47.750;-3.396;2023-02-26T05:34:35;4.65;;;2.17;;
46757;SDS011;32509;47.750;-3.396;2023-02-26T05:37:00;9.63;;;2.08;;
46757;SDS011;32509;47.750;-3.396;2023-02-26T05:39:26;8.73;;;3.05;;
46757;SDS011;32509;47.750;-3.396;2023-02-26T05:41:52;3.97;;;2.38;;
46757;SDS011;32509;47.750;-3.396;2023-02-26T05:44:19;7.40;;;2.20;;
46757;SDS011;32509;47.750;-3.396;2023-02-26T05:46:46;6.90;;;3.03;;
46757;SDS011;32509;47.750;-3.396;2023-02-26T05:49:11;7.03;;;2.30;;
46757;SDS011;32509;47.750;-3.396;2023-02-26T05:51:37;6.15;;;2.17;;
46757;SDS011;32509;47.750;-3.396;2023-02-26T05:54:03;6.45;;;1.85;;
46757;SDS011;32509;47.750;-3.396;2023-02-26T05:56:30;5.25;;;2.17;;
46757;SDS011;32509;47.750;-3.396;2023-02-26T05:58:56;7.88;;;2.35;;
46757;SDS011;32509;47.750;-3.396;2023-02-26T06:01:22;7.35;;;2.05;;
46757;SDS011;32509;47.750;-3.396;2023-02-26T06:03:48;6.63;;;2.40;;
46757;SDS011;32509;47.750;-3.396;2023-02-26T06:06:14;6.32;;;2.50;;
46757;SDS011;32509;47.750;-3.396;2023-02-26T06:08:42;3.38;;;2.00;;
46757;SDS011;32509;47.750;-3.396;2023-02-26T06:11:08;7.60;;;2.38;;
46757;SDS011;32509;47.750;-3.396;2023-02-26T06:13:34;4.88;;;2.38;;
46757;SDS011;32509;47.750;-3.396;2023-02-26T06:16:01;6.35;;;2.53;;
46757;SDS011;32509;47.750;-3.396;2023-02-26T06:18:27;5.28;;;2.33;;
46757;SDS011;32509;47.750;-3.396;2023-02-26T06:20:52;8.25;;;2.38;;
46757;SDS011;32509;47.750;-3.396;2023-02-26T06:23:18;7.65;;;2.50;;
46757;SDS011;32509;47.750;-3.396;2023-02-26T06:25:44;8.32;;;3.05;;
46757;SDS011;32509;47.750;-3.396;2023-02-26T06:28:10;6.10;;;2.25;;
46757;SDS011;32509;47.750;-3.396;2023-02-26T06:30:36;5.55;;;2.58;;
46757;SDS011;32509;47.750;-3.396;2023-02-26T06:33:02;8.30;;;2.25;;
46757;SDS011;32509;47.750;-3.396;2023-02-26T06:35:27;8.65;;;2.88;;
46757;SDS011;32509;47.750;-3.396;2023-02-26T06:37:54;5.95;;;2.45;;
46757;SDS011;32509;47.750;-3.396;2023-02-26T06:40:20;7.55;;;2.38;;
46757;SDS011;32509;47.750;-3.396;2023-02-26T06:42:47;10.20;;;2.15;;
46757;SDS011;32509;47.750;-3.396;2023-02-26T06:45:13;6.53;;;2.95;;
46757;SDS011;32509;47.750;-3.396;2023-02-26T06:47:39;8.00;;;2.47;;
46757;SDS011;32509;47.750;-3.396;2023-02-26T06:50:08;7.75;;;2.25;;
46757;SDS011;32509;47.750;-3.396;2023-02-26T06:52:34;8.48;;;2.45;;
46757;SDS011;32509;47.750;-3.396;2023-02-26T06:55:00;7.72;;;2.40;;
46757;SDS011;32509;47.750;-3.396;2023-02-26T06:57:26;6.28;;;3.83;;
46757;SDS011;32509;47.750;-3.396;2023-02-26T06:59:52;3.90;;;2.20;;
46757;SDS011;32509;47.750;-3.396;2023-02-26T07:02:19;7.45;;;2.45;;
46757;SDS011;32509;47.750;-3.396;2023-02-26T07:04:46;6.82;;;4.05;;
46757;SDS011;32509;47.750;-3.396;2023-02-26T07:07:12;8.23;;;2.63;;
46757;SDS011;32509;47.750;-3.396;2023-02-26T07:09:38;13.07;;;3.50;;
46757;SDS011;32509;47.750;-3.396;2023-02-26T07:12:04;7.38;;;2.67;;
46757;SDS011;32509;47.750;-3.396;2023-02-26T07:14:31;10.43;;;2.15;;
46757;SDS011;32509;47.750;-3.396;2023-02-26T07:16:58;4.75;;;1.98;;
46757;SDS011;32509;47.750;-3.396;2023-02-26T07:19:24;7.25;;;3.30;;
46757;SDS011;32509;47.750;-3.396;2023-02-26T07:21:50;5.13;;;2.42;;
46757;SDS011;32509;47.750;-3.396;2023-02-26T07:24:16;7.03;;;2.50;;
46757;SDS011;32509;47.750;-3.396;2023-02-26T07:26:42;10.70;;;3.42;;
46757;SDS011;32509;47.750;-3.396;2023-02-26T07:29:08;7.05;;;2.35;;
46757;SDS011;32509;47.750;-3.396;2023-02-26T07:31:33;5.97;;;2.67;;
46757;SDS011;32509;47.750;-3.396;2023-02-26T07:33:59;9.20;;;3.33;;
46757;SDS011;32509;47.750;-3.396;2023-02-26T07:36:25;9.20;;;2.75;;
46757;SDS011;32509;47.750;-3.396;2023-02-26T07:38:51;7.03;;;2.45;;
46757;SDS011;32509;47.750;-3.396;2023-02-26T07:41:16;7.28;;;2.47;;
46757;SDS011;32509;47.750;-3.396;2023-02-26T07:43:42;6.68;;;2.47;;
46757;SDS011;32509;47.750;-3.396;2023-02-26T07:46:08;5.25;;;3.25;;
46757;SDS011;32509;47.750;-3.396;2023-02-26T07:48:34;8.18;;;2.75;;
46757;SDS011;32509;47.750;-3.396;2023-02-26T07:51:01;7.18;;;2.20;;
46757;SDS011;32509;47.750;-3.396;2023-02-26T07:53:27;4.93;;;2.42;;
46757;SDS011;32509;47.750;-3.396;2023-02-26T07:55:52;6.43;;;2.25;;
46757;SDS011;32509;47.750;-3.396;2023-02-26T07:58:18;5.25;;;1.95;;
46757;SDS011;32509;47.750;-3.396;2023-02-26T08:00:44;7.57;;;2.33;;
46757;SDS011;32509;47.750;-3.396;2023-02-26T08:03:10;3.95;;;2.30;;
46757;SDS011;32509;47.750;-3.396;2023-02-26T08:05:36;6.88;;;2.25;;
46757;SDS011;32509;47.750;-3.396;2023-02-26T08:08:02;5.10;;;2.50;;
46757;SDS011;32509;47.750;-3.396;2023-02-26T08:10:28;11.40;;;4.30;;
46757;SDS011;32509;47.750;-3.396;2023-02-26T08:12:54;8.63;;;2.20;;
46757;SDS011;32509;47.750;-3.396;2023-02-26T08:15:20;5.10;;;1.98;;
46757;SDS011;32509;47.750;-3.396;2023-02-26T08:17:46;5.50;;;2.20;;
46757;SDS011;32509;47.750;-3.396;2023-02-26T08:20:12;10.57;;;3.38;;
46757;SDS011;32509;47.750;-3.396;2023-02-26T08:22:39;7.35;;;2.65;;
46757;SDS011;32509;47.750;-3.396;2023-02-26T08:25:05;11.73;;;2.38;;
46757;SDS011;32509;47.750;-3.396;2023-02-26T08:27:32;6.10;;;2.75;;
46757;SDS011;32509;47.750;-3.396;2023-02-26T08:29:58;6.90;;;2.22;;
46757;SDS011;32509;47.750;-3.396;2023-02-26T08:32:23;7.03;;;2.55;;
46757;SDS011;32509;47.750;-3.396;2023-02-26T08:34:51;5.70;;;2.45;;
46757;SDS011;32509;47.750;-3.396;2023-02-26T08:37:16;6.47;;;2.33;;
46757;SDS011;32509;47.750;-3.396;2023-02-26T08:39:42;9.73;;;3.08;;
46757;SDS011;32509;47.750;-3.396;2023-02-26T08:42:08;6.18;;;2.53;;
46757;SDS011;32509;47.750;-3.396;2023-02-26T08:44:35;4.53;;;2.28;;
46757;SDS011;32509;47.750;-3.396;2023-02-26T08:47:01;7.82;;;2.67;;
46757;SDS011;32509;47.750;-3.396;2023-02-26T08:49:27;6.43;;;2.05;;
46757;SDS011;32509;47.750;-3.396;2023-02-26T08:51:53;4.70;;;2.25;;
46757;SDS011;32509;47.750;-3.396;2023-02-26T08:54:19;7.03;;;2.75;;
46757;SDS011;32509;47.750;-3.396;2023-02-26T08:56:48;10.23;;;2.42;;
46757;SDS011;32509;47.750;-3.396;2023-02-26T08:59:14;7.40;;;2.58;;
46757;SDS011;32509;47.750;-3.396;2023-02-26T09:01:39;2.95;;;2.10;;
46757;SDS011;32509;47.750;-3.396;2023-02-26T09:04:05;5.40;;;1.92;;
46757;SDS011;32509;47.750;-3.396;2023-02-26T09:06:31;2.58;;;1.52;;
46757;SDS011;32509;47.750;-3.396;2023-02-26T09:08:57;7.35;;;2.03;;
46757;SDS011;32509;47.750;-3.396;2023-02-26T09:11:23;6.35;;;1.75;;
46757;SDS011;32509;47.750;-3.396;2023-02-26T09:13:49;8.80;;;2.67;;
46757;SDS011;32509;47.750;-3.396;2023-02-26T09:16:15;7.15;;;1.80;;
46757;SDS011;32509;47.750;-3.396;2023-02-26T09:18:40;4.65;;;1.80;;
46757;SDS011;32509;47.750;-3.396;2023-02-26T09:21:06;6.65;;;1.90;;
46757;SDS011;32509;47.750;-3.396;2023-02-26T09:23:32;4.38;;;2.47;;
46757;SDS011;32509;47.750;-3.396;2023-02-26T09:25:58;5.43;;;2.08;;
46757;SDS011;32509;47.750;-3.396;2023-02-26T09:28:24;5.10;;;1.60;;
46757;SDS011;32509;47.750;-3.396;2023-02-26T09:30:54;6.03;;;1.75;;
46757;SDS011;32509;47.750;-3.396;2023-02-26T09:33:20;1.42;;;1.20;;
46757;SDS011;32509;47.750;-3.396;2023-02-26T09:35:47;6.93;;;1.75;;
46757;SDS011;32509;47.750;-3.396;2023-02-26T09:38:14;3.65;;;1.63;;
46757;SDS011;32509;47.750;-3.396;2023-02-26T09:41:00;2.63;;;1.33;;
46757;SDS011;32509;47.750;-3.396;2023-02-26T09:51:37;2.53;;;2.20;;
46757;SDS011;32509;47.750;-3.396;2023-02-26T09:54:09;4.60;;;1.63;;
46757;SDS011;32509;47.750;-3.396;2023-02-26T09:56:42;2.42;;;1.38;;
46757;SDS011;32509;47.750;-3.396;2023-02-26T09:59:09;3.08;;;1.45;;
46757;SDS011;32509;47.750;-3.396;2023-02-26T10:01:47;3.95;;;1.52;;
46757;SDS011;32509;47.750;-3.396;2023-02-26T10:12:57;2.53;;;1.20;;
46757;SDS011;32509;47.750;-3.396;2023-02-26T10:15:29;3.25;;;1.27;;
46757;SDS011;32509;47.750;-3.396;2023-02-26T10:23:05;3.30;;;1.50;;
46757;SDS011;32509;47.750;-3.396;2023-02-26T10:25:41;2.90;;;1.80;;
46757;SDS011;32509;47.750;-3.396;2023-02-26T10:30:57;1.50;;;1.30;;
46757;SDS011;32509;47.750;-3.396;2023-02-26T10:36:13;2.53;;;1.42;;
46757;SDS011;32509;47.750;-3.396;2023-02-26T10:38:46;1.77;;;1.17;;
46757;SDS011;32509;47.750;-3.396;2023-02-26T10:41:17;2.55;;;1.20;;
46757;SDS011;32509;47.750;-3.396;2023-02-26T10:44:02;3.67;;;1.20;;
46757;SDS011;32509;47.750;-3.396;2023-02-26T10:47:03;3.05;;;1.33;;
46757;SDS011;32509;47.750;-3.396;2023-02-26T10:52:17;2.30;;;1.23;;
46757;SDS011;32509;47.750;-3.396;2023-02-26T10:54:48;1.35;;;0.90;;
46757;SDS011;32509;47.750;-3.396;2023-02-26T10:57:20;3.67;;;1.20;;
46757;SDS011;32509;47.750;-3.396;2023-02-26T10:59:50;1.77;;;0.90;;
46757;SDS011;32509;47.750;-3.396;2023-02-26T11:05:00;2.80;;;0.95;;
46757;SDS011;32509;47.750;-3.396;2023-02-26T11:07:29;2.40;;;1.08;;
46757;SDS011;32509;47.750;-3.396;2023-02-26T11:09:56;3.05;;;1.30;;
46757;SDS011;32509;47.750;-3.396;2023-02-26T11:12:24;2.47;;;1.23;;
46757;SDS011;32509;47.750;-3.396;2023-02-26T11:14:50;3.15;;;1.20;;
46757;SDS011;32509;47.750;-3.396;2023-02-26T11:17:21;2.70;;;1.40;;
46757;SDS011;32509;47.750;-3.396;2023-02-26T11:22:27;4.88;;;1.35;;
46757;SDS011;32509;47.750;-3.396;2023-02-26T11:24:56;9.20;;;1.40;;
46757;SDS011;32509;47.750;-3.396;2023-02-26T11:27:24;3.85;;;0.80;;
46757;SDS011;32509;47.750;-3.396;2023-02-26T11:29:59;1.67;;;0.90;;
46757;SDS011;32509;47.750;-3.396;2023-02-26T11:32:34;8.07;;;1.10;;
46757;SDS011;32509;47.750;-3.396;2023-02-26T11:35:02;2.88;;;1.00;;
46757;SDS011;32509;47.750;-3.396;2023-02-26T11:37:35;4.03;;;0.90;;
46757;SDS011;32509;47.750;-3.396;2023-02-26T11:40:14;1.17;;;0.75;;
46757;SDS011;32509;47.750;-3.396;2023-02-26T11:45:17;2.13;;;1.25;;
46757;SDS011;32509;47.750;-3.396;2023-02-26T11:47:45;2.80;;;0.85;;
46757;SDS011;32509;47.750;-3.396;2023-02-26T11:50:14;1.90;;;0.80;;
46757;SDS011;32509;47.750;-3.396;2023-02-26T11:52:45;2.05;;;0.95;;
46757;SDS011;32509;47.750;-3.396;2023-02-26T11:55:37;4.47;;;1.20;;
46757;SDS011;32509;47.750;-3.396;2023-02-26T11:58:20;3.55;;;1.10;;
46757;SDS011;32509;47.750;-3.396;2023-02-26T12:00:48;2.25;;;0.93;;
46757;SDS011;32509;47.750;-3.396;2023-02-26T12:03:21;3.83;;;0.95;;
46757;SDS011;32509;47.750;-3.396;2023-02-26T12:08:27;2.15;;;1.30;;
46757;SDS011;32509;47.750;-3.396;2023-02-26T12:35:21;3.13;;;0.90;;
46757;SDS011;32509;47.750;-3.396;2023-02-26T12:38:07;1.55;;;1.10;;
46757;SDS011;32509;47.750;-3.396;2023-02-26T12:43:53;3.80;;;1.33;;
46757;SDS011;32509;47.750;-3.396;2023-02-26T12:49:27;2.55;;;1.00;;
46757;SDS011;32509;47.750;-3.396;2023-02-26T13:19:34;1.13;;;0.90;;
46757;SDS011;32509;47.750;-3.396;2023-02-26T13:22:19;2.55;;;1.63;;
46757;SDS011;32509;47.750;-3.396;2023-02-26T13:27:34;2.45;;;0.95;;
46757;SDS011;32509;47.750;-3.396;2023-02-26T13:32:50;3.40;;;1.40;;
46757;SDS011;32509;47.750;-3.396;2023-02-26T13:35:20;2.28;;;0.93;;
46757;SDS011;32509;47.750;-3.396;2023-02-26T13:37:52;2.67;;;1.23;;
46757;SDS011;32509;47.750;-3.396;2023-02-26T13:49:03;2.22;;;1.00;;
46757;SDS011;32509;47.750;-3.396;2023-02-26T13:51:35;3.97;;;1.23;;
46757;SDS011;32509;47.750;-3.396;2023-02-26T13:54:08;4.93;;;0.98;;
46757;SDS011;32509;47.750;-3.396;2023-02-26T14:04:41;3.42;;;1.15;;
46757;SDS011;32509;47.750;-3.396;2023-02-26T14:07:13;4.15;;;1.20;;
46757;SDS011;32509;47.750;-3.396;2023-02-26T14:09:54;2.50;;;1.10;;
46757;SDS011;32509;47.750;-3.396;2023-02-26T14:12:37;2.30;;;1.30;;
46757;SDS011;32509;47.750;-3.396;2023-02-26T14:15:18;1.58;;;1.20;;
46757;SDS011;32509;47.750;-3.396;2023-02-26T14:17:59;2.45;;;1.38;;
46757;SDS011;32509;47.750;-3.396;2023-02-26T14:20:30;1.65;;;1.20;;
46757;SDS011;32509;47.750;-3.396;2023-02-26T14:25:48;5.15;;;1.65;;
46757;SDS011;32509;47.750;-3.396;2023-02-26T14:28:31;4.03;;;1.30;;
46757;SDS011;32509;47.750;-3.396;2023-02-26T14:36:43;4.18;;;1.17;;
46757;SDS011;32509;47.750;-3.396;2023-02-26T14:44:43;5.47;;;1.50;;
46757;SDS011;32509;47.750;-3.396;2023-02-26T14:47:11;4.82;;;1.30;;
46757;SDS011;32509;47.750;-3.396;2023-02-26T14:49:42;4.15;;;1.23;;
46757;SDS011;32509;47.750;-3.396;2023-02-26T14:58:20;4.97;;;1.25;;
46757;SDS011;32509;47.750;-3.396;2023-02-26T15:01:18;5.47;;;1.42;;
46757;SDS011;32509;47.750;-3.396;2023-02-26T15:07:23;3.00;;;1.20;;
46757;SDS011;32509;47.750;-3.396;2023-02-26T15:10:15;6.13;;;1.30;;
46757;SDS011;32509;47.750;-3.396;2023-02-26T15:19:00;3.50;;;1.30;;
46757;SDS011;32509;47.750;-3.396;2023-02-26T15:24:28;3.45;;;1.73;;
46757;SDS011;32509;47.750;-3.396;2023-02-26T15:26:59;3.55;;;1.13;;
46757;SDS011;32509;47.750;-3.396;2023-02-26T15:29:28;3.20;;;1.38;;
46757;SDS011;32509;47.750;-3.396;2023-02-26T15:31:57;2.35;;;1.15;;
46757;SDS011;32509;47.750;-3.396;2023-02-26T15:36:55;3.90;;;1.70;;
46757;SDS011;32509;47.750;-3.396;2023-02-26T15:39:25;5.70;;;3.05;;
46757;SDS011;32509;47.750;-3.396;2023-02-26T15:41:52;5.47;;;1.40;;
46757;SDS011;32509;47.750;-3.396;2023-02-26T15:44:37;1.77;;;1.42;;
46757;SDS011;32509;47.750;-3.396;2023-02-26T15:47:04;3.50;;;1.17;;
46757;SDS011;32509;47.750;-3.396;2023-02-26T15:49:36;4.78;;;1.33;;
46757;SDS011;32509;47.750;-3.396;2023-02-26T15:52:04;2.15;;;1.42;;
46757;SDS011;32509;47.750;-3.396;2023-02-26T15:54:38;2.22;;;0.98;;
46757;SDS011;32509;47.750;-3.396;2023-02-26T15:57:07;2.63;;;1.67;;
46757;SDS011;32509;47.750;-3.396;2023-02-26T15:59:42;2.72;;;1.13;;
46757;SDS011;32509;47.750;-3.396;2023-02-26T16:02:17;4.75;;;0.80;;
46757;SDS011;32509;47.750;-3.396;2023-02-26T16:04:50;1.30;;;0.82;;
46757;SDS011;32509;47.750;-3.396;2023-02-26T16:07:17;1.95;;;1.20;;
46757;SDS011;32509;47.750;-3.396;2023-02-26T16:09:44;2.38;;;1.00;;
46757;SDS011;32509;47.750;-3.396;2023-02-26T16:12:16;2.25;;;1.20;;
46757;SDS011;32509;47.750;-3.396;2023-02-26T16:14:43;3.50;;;1.10;;
46757;SDS011;32509;47.750;-3.396;2023-02-26T16:17:25;4.70;;;1.58;;
46757;SDS011;32509;47.750;-3.396;2023-02-26T16:19:59;3.28;;;1.38;;
46757;SDS011;32509;47.750;-3.396;2023-02-26T16:22:32;2.95;;;1.27;;
46757;SDS011;32509;47.750;-3.396;2023-02-26T16:25:23;1.83;;;1.20;;
46757;SDS011;32509;47.750;-3.396;2023-02-26T16:28:14;3.60;;;1.60;;
46757;SDS011;32509;47.750;-3.396;2023-02-26T16:31:02;5.18;;;1.02;;
46757;SDS011;32509;47.750;-3.396;2023-02-26T16:33:33;0.70;;;0.70;;
46757;SDS011;32509;47.750;-3.396;2023-02-26T16:38:42;2.47;;;0.98;;
46757;SDS011;32509;47.750;-3.396;2023-02-26T16:41:10;4.93;;;1.15;;
46757;SDS011;32509;47.750;-3.396;2023-02-26T16:43:57;1.88;;;1.10;;
46757;SDS011;32509;47.750;-3.396;2023-02-26T16:49:07;4.82;;;1.35;;
46757;SDS011;32509;47.750;-3.396;2023-02-26T16:51:55;2.67;;;1.10;;
46757;SDS011;32509;47.750;-3.396;2023-02-26T16:59:35;1.10;;;0.80;;
46757;SDS011;32509;47.750;-3.396;2023-02-26T17:02:16;2.10;;;1.10;;
46757;SDS011;32509;47.750;-3.396;2023-02-26T17:04:45;7.35;;;1.25;;
46757;SDS011;32509;47.750;-3.396;2023-02-26T17:07:22;1.98;;;0.93;;
46757;SDS011;32509;47.750;-3.396;2023-02-26T17:13:15;2.20;;;1.10;;
46757;SDS011;32509;47.750;-3.396;2023-02-26T17:15:44;3.50;;;1.10;;
46757;SDS011;32509;47.750;-3.396;2023-02-26T17:18:11;2.22;;;1.00;;
46757;SDS011;32509;47.750;-3.396;2023-02-26T17:20:37;1.58;;;1.33;;
46757;SDS011;32509;47.750;-3.396;2023-02-26T17:23:05;3.97;;;1.60;;
46757;SDS011;32509;47.750;-3.396;2023-02-26T17:25:36;5.30;;;1.20;;
46757;SDS011;32509;47.750;-3.396;2023-02-26T17:28:05;4.93;;;1.13;;
46757;SDS011;32509;47.750;-3.396;2023-02-26T17:30:31;2.05;;;1.30;;
46757;SDS011;32509;47.750;-3.396;2023-02-26T17:32:59;2.55;;;1.30;;
46757;SDS011;32509;47.750;-3.396;2023-02-26T17:35:27;1.73;;;1.23;;
46757;SDS011;32509;47.750;-3.396;2023-02-26T17:37:53;2.78;;;1.67;;
46757;SDS011;32509;47.750;-3.396;2023-02-26T17:42:46;7.78;;;2.63;;
46757;SDS011;32509;47.750;-3.396;2023-02-26T17:45:13;4.40;;;2.33;;
46757;SDS011;32509;47.750;-3.396;2023-02-26T17:47:39;3.33;;;1.90;;
46757;SDS011;32509;47.750;-3.396;2023-02-26T17:50:19;4.63;;;1.73;;
46757;SDS011;32509;47.750;-3.396;2023-02-26T17:52:54;5.28;;;2.20;;
46757;SDS011;32509;47.750;-3.396;2023-02-26T17:55:21;3.05;;;1.30;;
46757;SDS011;32509;47.750;-3.396;2023-02-26T17:57:47;5.28;;;1.60;;
46757;SDS011;32509;47.750;-3.396;2023-02-26T18:00:13;4.00;;;1.27;;
46757;SDS011;32509;47.750;-3.396;2023-02-26T18:02:40;3.78;;;2.20;;
46757;SDS011;32509;47.750;-3.396;2023-02-26T18:05:07;2.90;;;1.80;;
46757;SDS011;32509;47.750;-3.396;2023-02-26T18:07:33;4.45;;;1.77;;
46757;SDS011;32509;47.750;-3.396;2023-02-26T18:09:59;5.00;;;1.90;;
46757;SDS011;32509;47.750;-3.396;2023-02-26T18:12:25;6.97;;;2.50;;
46757;SDS011;32509;47.750;-3.396;2023-02-26T18:14:51;9.75;;;2.75;;
46757;SDS011;32509;47.750;-3.396;2023-02-26T18:17:18;4.65;;;1.70;;
46757;SDS011;32509;47.750;-3.396;2023-02-26T18:19:48;7.22;;;1.77;;
46757;SDS011;32509;47.750;-3.396;2023-02-26T18:22:14;4.43;;;1.45;;
46757;SDS011;32509;47.750;-3.396;2023-02-26T18:24:48;3.40;;;1.70;;
46757;SDS011;32509;47.750;-3.396;2023-02-26T18:27:15;4.25;;;1.85;;
46757;SDS011;32509;47.750;-3.396;2023-02-26T18:29:46;4.93;;;1.40;;
46757;SDS011;32509;47.750;-3.396;2023-02-26T18:32:13;5.55;;;1.40;;
46757;SDS011;32509;47.750;-3.396;2023-02-26T18:34:42;2.13;;;1.65;;
46757;SDS011;32509;47.750;-3.396;2023-02-26T18:37:15;3.58;;;1.63;;